createdAt,value
2023-05-18T00:02:01.880Z,64.87
2023-05-18T00:05:05.390Z,65.58
2023-05-18T00:08:09.788Z,66.01
2023-05-18T00:11:13.826Z,66.88
2023-05-18T00:14:16.319Z,67.97
2023-05-18T00:17:20.229Z,67.74
2023-05-18T00:20:26.537Z,68.20
2023-05-18T00:23:30.006Z,68.07
2023-05-18T00:26:34.126Z,69.07
2023-05-18T00:29:36.765Z,69.31
2023-05-18T00:32:39.357Z,69.96
2023-05-18T00:35:41.979Z,69.65
2023-05-18T00:38:44.571Z,69.66
2023-05-18T00:41:48.581Z,69.52
2023-05-18T00:44:51.137Z,69.66
2023-05-18T00:47:53.723Z,69.62
2023-05-18T00:50:56.354Z,70.21
2023-05-18T00:54:01.064Z,70.14
2023-05-18T00:57:05.750Z,69.41
2023-05-18T01:00:10.894Z,68.89
2023-05-18T01:03:15.274Z,68.72
2023-05-18T01:06:18.438Z,69.11
2023-05-18T01:09:21.100Z,70.36
2023-05-18T01:12:28.325Z,70.53
2023-05-18T01:15:33.969Z,71.49
2023-05-18T01:18:43.565Z,70.94
2023-05-18T01:21:57.588Z,71.64
2023-05-18T01:25:04.719Z,71.74
2023-05-18T01:28:10.320Z,71.49
2023-05-18T01:31:13.625Z,72.35
2023-05-18T01:34:16.344Z,72.38
2023-05-18T01:37:18.920Z,72.33
2023-05-18T01:40:21.591Z,72.31
2023-05-18T01:43:29.991Z,73.12
2023-05-18T01:46:37.009Z,73.23
2023-05-18T01:49:44.096Z,73.19
2023-05-18T01:52:49.533Z,74.56
2023-05-18T01:55:53.924Z,74.64
2023-05-18T01:58:58.823Z,74.42
2023-05-18T02:02:02.046Z,74.66
2023-05-18T02:05:05.590Z,74.93
2023-05-18T02:08:08.198Z,74.88
2023-05-18T02:11:11.190Z,74.79
2023-05-18T02:14:15.165Z,75.45
2023-05-18T02:17:17.907Z,74.72
2023-05-18T02:20:20.705Z,75.63
2023-05-18T02:23:23.355Z,76.11
2023-05-18T02:26:26.377Z,75.91
2023-05-18T02:29:30.506Z,75.49
2023-05-18T02:32:38.195Z,75.99
2023-05-18T02:35:41.253Z,76.73
2023-05-18T02:38:45.064Z,77.04
2023-05-18T02:41:47.529Z,76.44
2023-05-18T02:44:52.115Z,76.66
2023-05-18T02:47:54.982Z,77.14
2023-05-18T02:50:58.775Z,76.67
2023-05-18T02:54:01.564Z,76.88
2023-05-18T02:57:04.186Z,76.99
2023-05-18T03:00:11.696Z,76.31
2023-05-18T03:03:16.372Z,76.30
2023-05-18T03:06:23.379Z,76.51
2023-05-18T03:09:26.554Z,76.43
2023-05-18T03:12:29.280Z,77.51
2023-05-18T03:15:33.392Z,77.45
2023-05-18T03:18:36.061Z,77.42
2023-05-18T03:21:38.874Z,77.34
2023-05-18T03:24:41.557Z,77.00
2023-05-18T03:27:44.264Z,77.41
2023-05-18T03:30:48.214Z,77.27
2023-05-18T03:33:50.899Z,77.53
2023-05-18T03:36:54.814Z,77.59
2023-05-18T03:40:00.936Z,77.17
2023-05-18T03:43:03.613Z,77.23
2023-05-18T03:46:07.781Z,77.18
2023-05-18T03:49:10.322Z,76.63
2023-05-18T03:52:15.339Z,76.17
2023-05-18T03:55:21.321Z,76.52
2023-05-18T03:58:23.961Z,76.17
2023-05-18T04:01:30.206Z,75.63
2023-05-18T04:04:33.296Z,75.95
2023-05-18T04:07:44.084Z,75.66
2023-05-18T04:10:47.382Z,75.78
2023-05-18T04:13:50.860Z,75.13
2023-05-18T04:16:55.007Z,74.48
2023-05-18T04:19:57.819Z,74.60
2023-05-18T04:23:00.461Z,74.70
2023-05-18T04:26:03.598Z,74.11
2023-05-18T04:29:07.735Z,73.83
2023-05-18T04:32:11.746Z,73.76
2023-05-18T04:35:14.710Z,73.54
2023-05-18T04:38:17.380Z,73.46
2023-05-18T04:41:22.200Z,73.84
2023-05-18T04:44:25.857Z,73.29
2023-05-18T04:47:30.157Z,73.07
2023-05-18T04:50:32.880Z,73.23
2023-05-18T04:53:38.693Z,72.83
2023-05-18T04:56:41.287Z,72.00
2023-05-18T04:59:47.255Z,72.44
2023-05-18T05:02:51.441Z,71.90
2023-05-18T05:05:54.469Z,70.46
2023-05-18T05:08:58.196Z,69.06
2023-05-18T05:12:00.924Z,68.89
2023-05-18T05:15:03.779Z,68.04
2023-05-18T05:18:08.057Z,65.67
2023-05-18T05:21:11.047Z,64.81
2023-05-18T05:24:13.672Z,62.65
2023-05-18T05:27:16.285Z,61.88
2023-05-18T05:30:18.914Z,61.36
2023-05-18T05:33:22.869Z,60.79
2023-05-18T05:36:25.571Z,60.28
2023-05-18T05:39:28.112Z,59.86
2023-05-18T05:42:30.805Z,59.37
2023-05-18T05:45:33.840Z,59.37
2023-05-18T05:48:38.142Z,58.33
2023-05-18T05:51:40.888Z,57.58
2023-05-18T05:54:43.521Z,57.22
2023-05-18T05:57:46.037Z,56.60
2023-05-18T06:00:48.700Z,56.12
2023-05-18T06:03:52.691Z,55.70
2023-05-18T06:06:55.391Z,56.15
2023-05-18T06:09:58.041Z,55.65
2023-05-18T06:13:00.678Z,55.90
2023-05-18T06:16:03.494Z,55.30
2023-05-18T06:19:07.518Z,54.93
2023-05-18T06:22:10.173Z,54.76
2023-05-18T06:25:12.724Z,54.37
2023-05-18T06:28:15.364Z,54.49
2023-05-18T06:31:18.988Z,54.87
2023-05-18T06:34:23.054Z,54.53
2023-05-18T06:37:25.684Z,53.67
2023-05-18T06:40:28.738Z,53.13
2023-05-18T06:43:31.399Z,52.04
2023-05-18T06:46:34.058Z,51.29
2023-05-18T06:49:38.272Z,51.18
2023-05-18T06:52:40.870Z,49.68
2023-05-18T06:55:43.571Z,50.02
2023-05-18T06:58:46.426Z,49.36
2023-05-18T07:01:50.119Z,49.30
2023-05-18T07:04:54.361Z,48.70
2023-05-18T07:07:57.395Z,48.42
2023-05-18T07:11:02.431Z,48.89
2023-05-18T07:14:06.038Z,47.83
2023-05-18T07:17:08.797Z,48.02
2023-05-18T07:20:13.320Z,47.46
2023-05-18T07:23:16.028Z,46.31
2023-05-18T07:26:18.582Z,47.14
2023-05-18T07:29:21.254Z,46.58
2023-05-18T07:32:23.991Z,46.63
2023-05-18T07:35:27.856Z,45.93
2023-05-18T07:38:30.546Z,45.65
2023-05-18T07:41:33.245Z,45.10
2023-05-18T07:44:35.890Z,45.11
2023-05-18T07:47:38.531Z,45.03
2023-05-18T07:50:42.840Z,43.80
2023-05-18T07:53:45.971Z,44.30
2023-05-18T07:56:48.690Z,43.55
2023-05-18T07:59:51.416Z,42.99
2023-05-18T08:02:54.479Z,43.16
2023-05-18T08:05:58.554Z,43.07
2023-05-18T08:09:01.265Z,41.97
2023-05-18T08:12:03.929Z,41.92
2023-05-18T08:15:07.924Z,41.59
2023-05-18T08:18:10.584Z,40.62
2023-05-18T08:21:14.606Z,40.48
2023-05-18T08:24:17.158Z,40.68
2023-05-18T08:27:20.021Z,40.44
2023-05-18T08:30:22.788Z,39.58
2023-05-18T08:33:25.828Z,39.08
2023-05-18T08:36:30.501Z,39.16
2023-05-18T08:39:33.083Z,39.70
2023-05-18T08:42:49.353Z,38.95
2023-05-18T08:45:56.460Z,38.14
2023-05-18T08:48:59.921Z,37.81
2023-05-18T08:52:04.820Z,37.21
2023-05-18T08:55:10.937Z,37.12
2023-05-18T08:58:15.328Z,37.02
2023-05-18T09:01:18.382Z,36.11
2023-05-18T09:04:21.513Z,35.97
2023-05-18T09:07:27.506Z,36.13
2023-05-18T09:10:30.209Z,35.23
2023-05-18T09:13:32.786Z,35.13
2023-05-18T09:16:35.715Z,35.31
2023-05-18T09:19:38.360Z,35.22
2023-05-18T09:22:42.335Z,35.33
2023-05-18T09:25:46.208Z,34.29
2023-05-18T09:28:53.191Z,33.88
2023-05-18T09:31:56.026Z,34.21
2023-05-18T09:35:05.552Z,33.08
2023-05-18T09:38:09.924Z,33.21
2023-05-18T09:41:16.387Z,32.99
2023-05-18T09:44:19.005Z,32.74
2023-05-18T09:47:21.639Z,32.36
2023-05-18T09:50:26.507Z,32.33
2023-05-18T09:53:30.481Z,31.82
2023-05-18T09:56:36.285Z,31.41
2023-05-18T09:59:38.830Z,32.24
2023-05-18T10:02:42.395Z,32.40
2023-05-18T10:05:45.017Z,31.45
2023-05-18T10:08:48.988Z,31.71
2023-05-18T10:11:51.602Z,31.73
2023-05-18T10:14:54.282Z,31.92
2023-05-18T10:17:58.074Z,31.26
2023-05-18T10:21:02.989Z,31.25
2023-05-18T10:24:08.813Z,31.66
2023-05-18T10:27:12.137Z,31.22
2023-05-18T10:30:14.574Z,30.75
2023-05-18T10:33:28.638Z,30.57
2023-05-18T10:36:34.324Z,31.04
2023-05-18T10:39:38.526Z,30.79
2023-05-18T10:42:41.269Z,31.17
2023-05-18T10:45:45.920Z,31.10
2023-05-18T10:48:49.434Z,31.16
2023-05-18T10:51:54.377Z,30.68
2023-05-18T10:54:59.568Z,30.69
2023-05-18T10:58:04.929Z,30.30
2023-05-18T11:01:10.272Z,30.12
2023-05-18T11:04:13.030Z,30.31
2023-05-18T11:07:16.245Z,29.98
2023-05-18T11:10:20.122Z,29.87
2023-05-18T11:13:29.554Z,29.36
2023-05-18T11:16:35.427Z,29.49
2023-05-18T11:19:38.111Z,29.42
2023-05-18T11:22:46.065Z,29.57
2023-05-18T11:25:51.052Z,28.92
2023-05-18T11:28:53.923Z,29.04
2023-05-18T11:31:56.761Z,29.14
2023-05-18T11:34:59.943Z,29.32
2023-05-18T11:38:08.473Z,28.65
2023-05-18T11:41:29.167Z,28.13
2023-05-18T11:44:32.705Z,28.42
2023-05-18T11:47:36.610Z,27.65
2023-05-18T11:50:39.355Z,27.47
2023-05-18T11:53:42.275Z,27.38
2023-05-18T11:56:46.262Z,27.07
2023-05-18T11:59:51.115Z,26.70
2023-05-18T12:02:56.717Z,26.35
2023-05-18T12:06:01.463Z,25.92
2023-05-18T12:09:04.364Z,26.18
2023-05-18T12:12:10.938Z,25.67
2023-05-18T12:15:15.748Z,24.57
2023-05-18T12:18:20.028Z,24.22
2023-05-18T12:21:23.329Z,24.16
2023-05-18T12:24:25.708Z,24.54
2023-05-18T12:27:30.112Z,24.03
2023-05-18T12:30:36.297Z,23.42
2023-05-18T12:33:39.420Z,22.95
2023-05-18T12:36:43.653Z,22.33
2023-05-18T12:39:46.232Z,21.73
2023-05-18T12:42:54.478Z,20.99
2023-05-18T12:45:59.642Z,21.10
2023-05-18T12:49:05.005Z,21.53
2023-05-18T12:52:12.493Z,22.48
2023-05-18T12:55:21.534Z,22.02
2023-05-18T12:58:25.457Z,21.81
2023-05-18T13:01:28.200Z,21.45
2023-05-18T13:04:35.503Z,21.26
2023-05-18T13:07:40.083Z,21.41
2023-05-18T13:10:44.870Z,21.27
2023-05-18T13:14:10.786Z,21.33
2023-05-18T13:17:23.110Z,21.44
2023-05-18T13:20:35.744Z,20.45
2023-05-18T13:23:39.442Z,20.05
2023-05-18T13:26:42.370Z,21.40
2023-05-18T13:29:46.193Z,21.83
2023-05-18T13:32:48.897Z,22.04
2023-05-18T13:35:51.751Z,21.67
2023-05-18T13:38:54.493Z,20.93
2023-05-18T13:41:57.008Z,18.81
2023-05-18T13:45:01.023Z,13.71
2023-05-18T13:48:09.592Z,12.03
2023-05-18T13:51:13.221Z,16.14
2023-05-18T13:54:15.787Z,18.85
2023-05-18T13:57:18.325Z,18.50
2023-05-18T14:00:22.689Z,18.31
2023-05-18T14:03:25.745Z,16.18
2023-05-18T14:06:28.798Z,11.46
2023-05-18T14:09:32.914Z,11.90
2023-05-18T14:12:36.151Z,10.76
2023-05-18T14:15:40.155Z,11.64
2023-05-18T14:18:42.925Z,13.43
2023-05-18T14:21:45.835Z,13.81
2023-05-18T14:24:48.628Z,12.65
2023-05-18T14:27:51.449Z,10.06
2023-05-18T14:30:55.478Z,9.60
2023-05-18T14:33:58.362Z,12.56
2023-05-18T14:37:03.838Z,14.98
2023-05-18T14:40:08.325Z,13.25
2023-05-18T14:43:11.056Z,10.20
2023-05-18T14:46:15.241Z,14.28
2023-05-18T14:49:17.871Z,11.99
2023-05-18T14:52:20.590Z,8.85
2023-05-18T14:55:23.099Z,7.90
2023-05-18T14:58:26.107Z,7.13
2023-05-18T15:01:30.165Z,8.36
2023-05-18T15:04:33.252Z,10.98
2023-05-18T15:07:35.969Z,15.08
2023-05-18T15:10:38.687Z,17.74
2023-05-18T15:13:42.441Z,19.75
2023-05-18T15:16:46.779Z,20.79
2023-05-18T15:19:49.719Z,21.67
2023-05-18T15:22:52.314Z,22.61
2023-05-18T15:25:55.145Z,22.77
2023-05-18T15:28:57.800Z,23.17
2023-05-18T15:32:01.823Z,23.70
2023-05-18T15:35:05.202Z,23.79
2023-05-18T15:38:07.879Z,24.07
2023-05-18T15:41:10.732Z,24.05
2023-05-18T15:44:13.305Z,25.09
2023-05-18T15:47:17.305Z,25.84
2023-05-18T15:50:19.893Z,25.94
2023-05-18T15:53:22.463Z,26.16
2023-05-18T15:56:25.162Z,26.39
2023-05-18T15:59:28.301Z,26.83
2023-05-18T16:02:32.212Z,27.64
2023-05-18T16:05:35.223Z,27.63
2023-05-18T16:08:37.846Z,27.64
2023-05-18T16:11:40.401Z,27.88
2023-05-18T16:14:42.930Z,28.14
2023-05-18T16:17:47.106Z,28.30
2023-05-18T16:20:49.750Z,28.82
2023-05-18T16:23:52.558Z,28.82
2023-05-18T16:26:55.408Z,29.27
2023-05-18T16:29:58.378Z,29.62
2023-05-18T16:33:02.476Z,29.62
2023-05-18T16:36:06.225Z,30.00
2023-05-18T16:39:08.905Z,29.70
2023-05-18T16:42:12.395Z,29.46
2023-05-18T16:45:15.272Z,29.52
2023-05-18T16:48:19.334Z,30.01
2023-05-18T16:51:21.934Z,30.00
2023-05-18T16:54:25.093Z,29.62
2023-05-18T16:57:27.822Z,29.47
2023-05-18T17:00:31.127Z,29.46
2023-05-18T17:03:35.718Z,29.56
2023-05-18T17:06:38.914Z,29.74
2023-05-18T17:09:42.365Z,29.11
2023-05-18T17:12:45.005Z,29.54
2023-05-18T17:15:47.720Z,29.44
2023-05-18T17:18:53.388Z,29.54
2023-05-18T17:21:56.413Z,29.99
2023-05-18T17:24:59.368Z,30.66
2023-05-18T17:28:02.036Z,31.02
2023-05-18T17:31:07.498Z,31.60
2023-05-18T17:34:11.880Z,31.69
2023-05-18T17:37:14.514Z,32.20
2023-05-18T17:40:17.146Z,32.45
2023-05-18T17:43:19.919Z,31.85
2023-05-18T17:46:22.519Z,32.35
2023-05-18T17:49:27.223Z,32.21
2023-05-18T17:52:29.858Z,32.38
2023-05-18T17:55:32.751Z,32.41
2023-05-18T17:58:38.822Z,33.36
2023-05-18T18:01:41.804Z,34.39
2023-05-18T18:04:45.755Z,34.37
2023-05-18T18:07:48.533Z,34.72
2023-05-18T18:10:51.390Z,35.22
2023-05-18T18:13:54.701Z,35.09
2023-05-18T18:16:58.433Z,35.38
2023-05-18T18:20:04.142Z,35.24
2023-05-18T18:23:07.391Z,36.38
2023-05-18T18:26:10.047Z,36.38
2023-05-18T18:29:12.643Z,36.47
2023-05-18T18:32:15.200Z,36.52
2023-05-18T18:35:19.452Z,37.22
2023-05-18T18:38:22.440Z,37.10
2023-05-18T18:41:25.895Z,37.50
2023-05-18T18:44:28.731Z,37.90
2023-05-18T18:47:31.445Z,38.54
2023-05-18T18:50:35.470Z,39.27
2023-05-18T18:53:38.043Z,38.93
2023-05-18T18:56:40.766Z,39.18
2023-05-18T18:59:43.410Z,39.71
2023-05-18T19:02:46.012Z,38.74
2023-05-18T19:05:50.362Z,37.88
2023-05-18T19:08:53.364Z,36.98
2023-05-18T19:11:55.965Z,36.80
2023-05-18T19:14:58.493Z,36.90
2023-05-18T19:18:01.196Z,37.69
2023-05-18T19:21:05.593Z,37.55
2023-05-18T19:24:08.802Z,36.88
2023-05-18T19:27:11.376Z,37.01
2023-05-18T19:30:16.497Z,36.86
2023-05-18T19:33:19.092Z,36.91
2023-05-18T19:36:22.951Z,37.39
2023-05-18T19:39:25.558Z,38.41
2023-05-18T19:42:28.302Z,38.48
2023-05-18T19:45:31.158Z,39.58
2023-05-18T19:48:34.104Z,40.39
2023-05-18T19:51:38.768Z,40.94
2023-05-18T19:54:41.453Z,41.81
2023-05-18T19:57:44.022Z,42.44
2023-05-18T20:00:46.816Z,43.12
2023-05-18T20:03:49.783Z,43.76
2023-05-18T20:06:53.979Z,44.49
2023-05-18T20:09:56.500Z,44.82
2023-05-18T20:12:59.059Z,45.34
2023-05-18T20:16:03.466Z,45.60
2023-05-18T20:19:06.606Z,45.89
2023-05-18T20:22:10.978Z,46.96
2023-05-18T20:25:13.630Z,47.41
2023-05-18T20:28:16.304Z,47.40
2023-05-18T20:31:18.897Z,47.94
2023-05-18T20:34:21.482Z,48.04
2023-05-18T20:37:26.182Z,48.30
2023-05-18T20:40:30.783Z,48.82
2023-05-18T20:43:33.712Z,48.58
2023-05-18T20:46:37.665Z,48.46
2023-05-18T20:49:41.255Z,48.84
2023-05-18T20:52:46.141Z,48.86
2023-05-18T20:55:49.809Z,48.66
2023-05-18T20:58:52.395Z,48.55
2023-05-18T21:01:56.383Z,48.70
2023-05-18T21:04:59.118Z,48.45
2023-05-18T21:08:03.459Z,48.23
2023-05-18T21:11:06.022Z,47.75
2023-05-18T21:14:08.789Z,47.72
2023-05-18T21:17:11.407Z,47.79
2023-05-18T21:20:14.026Z,48.08
2023-05-18T21:23:18.058Z,48.20
2023-05-18T21:26:20.630Z,48.26
2023-05-18T21:29:23.214Z,48.58
2023-05-18T21:32:25.852Z,48.85
2023-05-18T21:35:28.594Z,48.87
2023-05-18T21:38:32.819Z,48.88
2023-05-18T21:41:39.078Z,48.85
2023-05-18T21:44:41.642Z,49.11
2023-05-18T21:47:44.336Z,49.02
2023-05-18T21:50:47.146Z,48.71
2023-05-18T21:53:51.702Z,48.93
2023-05-18T21:56:54.322Z,49.13
2023-05-18T21:59:56.844Z,48.90
2023-05-18T22:02:59.628Z,48.26
2023-05-18T22:06:02.181Z,46.85
2023-05-18T22:09:06.835Z,45.53
2023-05-18T22:12:09.686Z,45.05
2023-05-18T22:15:12.765Z,45.49
2023-05-18T22:18:17.381Z,45.35
2023-05-18T22:21:20.149Z,45.93
2023-05-18T22:24:24.118Z,45.37
2023-05-18T22:27:26.789Z,46.21
2023-05-18T22:30:29.565Z,47.41
2023-05-18T22:33:32.326Z,48.25
2023-05-18T22:36:35.150Z,46.75
2023-05-18T22:39:39.009Z,44.84
2023-05-18T22:42:41.927Z,45.24
2023-05-18T22:45:44.479Z,45.07
2023-05-18T22:48:48.054Z,45.25
2023-05-18T22:51:52.520Z,45.13
2023-05-18T22:54:56.582Z,44.56
2023-05-18T22:57:59.433Z,44.32
2023-05-18T23:01:02.058Z,43.99
2023-05-18T23:04:04.601Z,44.37
2023-05-18T23:07:07.325Z,45.91
2023-05-18T23:10:12.775Z,46.41
2023-05-18T23:13:16.953Z,47.00
2023-05-18T23:16:20.535Z,47.30
2023-05-18T23:19:23.835Z,47.41
2023-05-18T23:22:26.691Z,47.04
2023-05-18T23:25:30.693Z,47.17
2023-05-18T23:28:33.263Z,47.70
2023-05-18T23:31:35.948Z,48.29
2023-05-18T23:34:39.082Z,46.33
2023-05-18T23:37:42.943Z,46.31
2023-05-18T23:40:48.221Z,46.11
2023-05-18T23:43:53.008Z,46.20
2023-05-18T23:46:56.426Z,46.70
2023-05-18T23:49:59.617Z,46.76
2023-05-18T23:53:04.432Z,47.67
2023-05-18T23:56:09.173Z,48.05
2023-05-18T23:59:12.791Z,48.30
